createdAt,value
2022-12-11T00:01:43.323Z,0.91
2022-12-11T00:04:10.895Z,0.98
2022-12-11T00:06:38.786Z,1.18
2022-12-11T00:09:06.270Z,1.09
2022-12-11T00:11:33.915Z,1.18
2022-12-11T00:14:01.498Z,1.33
2022-12-11T00:16:28.991Z,1.20
2022-12-11T00:18:56.509Z,1.16
2022-12-11T00:21:24.507Z,1.32
2022-12-11T00:23:52.465Z,1.28
2022-12-11T00:26:20.091Z,1.22
2022-12-11T00:28:48.177Z,1.04
2022-12-11T00:31:18.177Z,1.14
2022-12-11T00:33:46.563Z,1.23
2022-12-11T00:36:16.491Z,1.27
2022-12-11T00:38:44.852Z,1.17
2022-12-11T00:41:12.614Z,0.98
2022-12-11T00:43:40.550Z,1.11
2022-12-11T00:46:08.069Z,0.89
2022-12-11T00:48:35.562Z,0.98
2022-12-11T00:51:03.655Z,0.97
2022-12-11T00:53:31.217Z,1.11
2022-12-11T00:55:59.438Z,1.34
2022-12-11T00:58:26.850Z,1.21
2022-12-11T01:00:54.709Z,1.06
2022-12-11T01:03:22.302Z,0.92
2022-12-11T01:05:54.949Z,0.80
2022-12-11T01:08:22.751Z,0.92
2022-12-11T01:10:50.644Z,1.17
2022-12-11T01:13:18.185Z,1.31
2022-12-11T01:15:46.244Z,1.24
2022-12-11T01:18:15.176Z,1.42
2022-12-11T01:20:43.682Z,1.22
2022-12-11T01:26:11.017Z,1.00
2022-12-11T01:28:38.925Z,0.72
2022-12-11T01:31:14.288Z,0.93
2022-12-11T01:33:41.780Z,0.86
2022-12-11T01:36:11.476Z,0.91
2022-12-11T01:38:38.919Z,0.71
2022-12-11T01:41:07.155Z,0.93
2022-12-11T01:43:34.602Z,1.14
2022-12-11T01:46:02.261Z,0.91
2022-12-11T01:48:34.071Z,0.47
2022-12-11T01:51:06.675Z,0.55
2022-12-11T01:53:38.912Z,0.76
2022-12-11T01:56:08.474Z,0.99
2022-12-11T01:58:43.026Z,1.00
2022-12-11T02:01:15.480Z,0.74
2022-12-11T02:03:43.701Z,0.57
2022-12-11T02:06:50.608Z,0.57
2022-12-11T02:09:24.617Z,0.49
2022-12-11T02:12:13.433Z,0.60
2022-12-11T02:15:05.848Z,0.49
2022-12-11T02:17:44.626Z,0.61
2022-12-11T02:20:17.908Z,0.71
2022-12-11T02:23:15.634Z,0.75
2022-12-11T02:26:07.405Z,0.77
2022-12-11T02:28:52.019Z,0.61
2022-12-11T02:31:33.896Z,0.71
2022-12-11T02:34:10.458Z,0.92
2022-12-11T02:36:42.522Z,0.89
2022-12-11T02:39:13.960Z,0.91
2022-12-11T02:41:47.025Z,1.14
2022-12-11T02:44:17.838Z,1.27
2022-12-11T02:46:45.861Z,1.12
2022-12-11T02:49:15.408Z,1.28
2022-12-11T02:51:44.529Z,1.34
2022-12-11T02:54:23.364Z,1.48
2022-12-11T02:57:21.177Z,1.54
2022-12-11T02:59:48.766Z,1.61
2022-12-11T03:02:17.654Z,1.53
2022-12-11T03:04:47.925Z,1.08
2022-12-11T03:07:23.867Z,1.00
2022-12-11T03:09:51.833Z,1.20
2022-12-11T03:12:28.077Z,1.18
2022-12-11T03:14:56.955Z,1.26
2022-12-11T03:17:30.416Z,1.25
2022-12-11T03:20:12.373Z,1.25
2022-12-11T03:22:47.692Z,1.22
2022-12-11T03:25:20.930Z,1.15
2022-12-11T03:27:56.505Z,0.78
2022-12-11T03:30:26.245Z,0.69
2022-12-11T03:33:05.273Z,0.91
2022-12-11T03:35:43.079Z,0.90
2022-12-11T03:38:16.242Z,0.93
2022-12-11T03:40:49.257Z,0.79
2022-12-11T03:43:18.074Z,0.92
2022-12-11T03:45:47.393Z,1.14
2022-12-11T03:48:16.900Z,1.19
2022-12-11T03:50:47.145Z,1.22
2022-12-11T03:53:15.278Z,1.10
2022-12-11T03:55:43.577Z,1.22
2022-12-11T03:58:11.147Z,1.10
2022-12-11T04:00:39.456Z,1.16
2022-12-11T04:03:16.712Z,1.14
2022-12-11T04:05:47.352Z,1.46
2022-12-11T04:08:15.675Z,1.21
2022-12-11T04:10:43.345Z,1.12
2022-12-11T04:13:11.635Z,1.20
2022-12-11T04:15:40.206Z,1.34
2022-12-11T04:18:26.441Z,1.35
2022-12-11T04:21:13.792Z,1.29
2022-12-11T04:23:59.778Z,1.40
2022-12-11T04:26:27.692Z,1.35
2022-12-11T04:28:55.024Z,1.17
2022-12-11T04:31:23.095Z,1.09
2022-12-11T04:33:50.621Z,1.00
2022-12-11T04:36:19.277Z,1.05
2022-12-11T04:38:46.729Z,0.90
2022-12-11T04:41:15.947Z,0.97
2022-12-11T04:43:46.515Z,0.67
2022-12-11T04:46:18.397Z,0.85
2022-12-11T04:48:46.819Z,1.00
2022-12-11T04:51:14.589Z,0.73
2022-12-11T04:53:42.795Z,0.79
2022-12-11T04:56:13.169Z,1.20
2022-12-11T04:58:42.163Z,1.21
2022-12-11T05:01:12.492Z,1.06
2022-12-11T05:03:40.829Z,1.10
2022-12-11T05:06:09.005Z,1.18
2022-12-11T05:08:38.708Z,1.53
2022-12-11T05:11:08.405Z,1.24
2022-12-11T05:13:36.420Z,0.92
2022-12-11T05:16:05.947Z,0.99
2022-12-11T05:18:33.517Z,0.98
2022-12-11T05:21:04.103Z,0.99
2022-12-11T05:23:31.989Z,1.23
2022-12-11T05:26:02.077Z,1.17
2022-12-11T05:28:32.386Z,1.47
2022-12-11T05:31:06.135Z,1.22
2022-12-11T05:33:34.592Z,1.32
2022-12-11T05:36:02.100Z,1.37
2022-12-11T05:38:41.409Z,1.58
2022-12-11T05:41:17.737Z,1.63
2022-12-11T05:43:45.717Z,1.56
2022-12-11T05:46:14.788Z,1.64
2022-12-11T05:48:43.355Z,1.67
2022-12-11T05:51:11.321Z,1.49
2022-12-11T05:53:39.503Z,1.57
2022-12-11T05:56:11.119Z,1.82
2022-12-11T05:58:39.516Z,1.69
2022-12-11T06:01:15.158Z,1.94
2022-12-11T06:03:42.847Z,1.98
2022-12-11T06:06:10.313Z,1.87
2022-12-11T06:08:37.927Z,1.93
2022-12-11T06:11:06.327Z,2.04
2022-12-11T06:13:34.072Z,2.23
2022-12-11T06:16:06.162Z,2.39
2022-12-11T06:18:42.334Z,2.27
2022-12-11T06:21:25.025Z,2.35
2022-12-11T06:23:55.001Z,2.48
2022-12-11T06:26:22.766Z,2.47
2022-12-11T06:28:50.489Z,2.68
2022-12-11T06:31:18.716Z,2.72
2022-12-11T06:33:46.229Z,2.87
2022-12-11T06:36:17.160Z,2.99
2022-12-11T06:38:44.983Z,2.75
2022-12-11T06:41:13.002Z,2.80
2022-12-11T06:43:42.109Z,2.75
2022-12-11T06:46:12.861Z,2.85
2022-12-11T06:48:42.492Z,2.83
2022-12-11T06:51:13.049Z,3.02
2022-12-11T06:53:41.187Z,3.02
2022-12-11T06:56:12.227Z,3.11
2022-12-11T06:58:41.372Z,3.17
2022-12-11T07:01:34.948Z,3.08
2022-12-11T07:04:02.607Z,3.00
2022-12-11T07:06:30.057Z,3.05
2022-12-11T07:08:57.645Z,3.32
2022-12-11T07:11:25.327Z,3.26
2022-12-11T07:13:52.814Z,3.35
2022-12-11T07:16:20.417Z,3.43
2022-12-11T07:18:50.344Z,3.43
2022-12-11T07:21:18.625Z,3.63
2022-12-11T07:23:46.315Z,3.79
2022-12-11T07:26:16.892Z,3.71
2022-12-11T07:28:44.907Z,3.78
2022-12-11T07:31:19.173Z,3.65
2022-12-11T07:33:47.491Z,3.44
2022-12-11T07:36:16.464Z,3.60
2022-12-11T07:38:44.070Z,3.64
2022-12-11T07:41:16.745Z,3.68
2022-12-11T07:44:04.166Z,3.75
2022-12-11T07:46:33.730Z,3.79
2022-12-11T07:49:01.761Z,3.84
2022-12-11T07:51:31.584Z,3.97
2022-12-11T07:54:05.235Z,3.78
2022-12-11T07:56:34.000Z,3.81
2022-12-11T07:59:02.849Z,3.59
2022-12-11T08:01:32.867Z,3.78
2022-12-11T08:04:00.766Z,3.83
2022-12-11T08:06:31.256Z,3.75
2022-12-11T08:09:00.456Z,3.90
2022-12-11T08:11:29.240Z,3.81
2022-12-11T08:13:59.465Z,3.85
2022-12-11T08:16:27.722Z,3.90
2022-12-11T08:18:55.541Z,3.83
2022-12-11T08:21:26.260Z,3.91
2022-12-11T08:23:54.676Z,3.78
2022-12-11T08:26:25.741Z,3.82
2022-12-11T08:28:53.930Z,3.74
2022-12-11T08:31:22.017Z,3.84
2022-12-11T08:33:50.517Z,3.87
2022-12-11T08:36:21.311Z,3.71
2022-12-11T08:38:50.924Z,3.73
2022-12-11T08:41:28.995Z,3.63
2022-12-11T08:43:57.973Z,3.81
2022-12-11T08:46:28.035Z,3.44
2022-12-11T08:48:56.751Z,3.50
2022-12-11T08:51:26.371Z,3.74
2022-12-11T08:53:59.078Z,4.07
2022-12-11T08:56:27.691Z,4.11
2022-12-11T08:58:55.570Z,4.09
2022-12-11T09:01:25.608Z,4.04
2022-12-11T09:03:54.511Z,4.18
2022-12-11T09:06:24.374Z,4.35
2022-12-11T09:08:53.639Z,4.45
2022-12-11T09:11:24.334Z,4.56
2022-12-11T09:13:52.185Z,4.56
2022-12-11T09:16:22.297Z,4.59
2022-12-11T09:18:51.837Z,4.54
2022-12-11T09:21:22.796Z,4.54
2022-12-11T09:23:53.500Z,4.38
2022-12-11T09:26:21.357Z,4.38
2022-12-11T09:28:51.575Z,4.47
2022-12-11T09:31:31.189Z,4.65
2022-12-11T09:34:09.461Z,4.77
2022-12-11T09:36:39.270Z,4.53
2022-12-11T09:39:08.979Z,4.61
2022-12-11T09:41:56.761Z,4.63
2022-12-11T09:44:42.949Z,4.80
2022-12-11T09:47:38.887Z,4.85
2022-12-11T09:50:09.300Z,4.83
2022-12-11T09:53:12.867Z,4.68
2022-12-11T09:55:52.378Z,4.57
2022-12-11T09:58:22.629Z,4.76
2022-12-11T10:01:01.082Z,4.88
2022-12-11T10:03:56.144Z,4.85
2022-12-11T10:07:05.002Z,5.11
2022-12-11T10:10:11.304Z,5.11
2022-12-11T10:13:02.220Z,4.76
2022-12-11T10:15:51.335Z,4.98
2022-12-11T10:18:23.306Z,4.87
2022-12-11T10:20:53.218Z,4.93
2022-12-11T10:23:28.652Z,5.22
2022-12-11T10:26:04.298Z,5.25
2022-12-11T10:28:31.798Z,5.42
2022-12-11T10:31:05.961Z,5.43
2022-12-11T10:34:10.298Z,5.42
2022-12-11T10:36:41.401Z,5.25
2022-12-11T10:39:17.488Z,5.09
2022-12-11T10:41:47.899Z,4.97
2022-12-11T10:44:25.508Z,5.00
2022-12-11T10:47:19.273Z,5.14
2022-12-11T10:50:00.947Z,5.23
2022-12-11T10:52:36.181Z,5.39
2022-12-11T10:55:29.345Z,5.53
2022-12-11T10:58:05.832Z,5.53
2022-12-11T11:00:41.351Z,5.10
2022-12-11T11:03:28.840Z,5.05
2022-12-11T11:06:22.381Z,4.89
2022-12-11T11:08:54.198Z,5.10
2022-12-11T11:11:38.815Z,4.83
2022-12-11T11:14:17.495Z,4.67
2022-12-11T11:16:48.251Z,4.89
2022-12-11T11:19:32.899Z,4.94
2022-12-11T11:22:13.051Z,4.93
2022-12-11T11:24:44.489Z,5.04
2022-12-11T11:27:35.949Z,4.86
2022-12-11T11:30:11.107Z,4.94
2022-12-11T11:32:40.148Z,5.07
2022-12-11T11:35:13.879Z,5.29
2022-12-11T11:37:45.385Z,5.34
2022-12-11T11:40:20.279Z,5.02
2022-12-11T11:43:16.593Z,4.91
2022-12-11T11:45:56.967Z,4.91
2022-12-11T11:48:36.840Z,4.98
2022-12-11T11:51:15.188Z,4.93
2022-12-11T11:53:47.905Z,4.80
2022-12-11T11:56:27.183Z,4.62
2022-12-11T11:59:20.848Z,4.94
2022-12-11T12:01:48.320Z,5.09
2022-12-11T12:04:16.358Z,5.00
2022-12-11T12:07:04.622Z,4.78
2022-12-11T12:09:41.591Z,4.86
2022-12-11T12:12:31.041Z,4.67
2022-12-11T12:15:18.676Z,4.79
2022-12-11T12:18:17.113Z,4.45
2022-12-11T12:20:44.765Z,4.27
2022-12-11T12:23:43.038Z,4.10
2022-12-11T12:26:13.431Z,4.07
2022-12-11T12:28:59.215Z,4.23
2022-12-11T12:31:48.708Z,4.40
2022-12-11T12:34:44.845Z,4.35
2022-12-11T12:37:30.430Z,4.16
2022-12-11T12:40:16.963Z,4.29
2022-12-11T12:43:10.811Z,4.01
2022-12-11T12:46:02.578Z,4.11
2022-12-11T12:48:30.588Z,3.84
2022-12-11T12:51:01.026Z,3.80
2022-12-11T12:53:34.789Z,3.84
2022-12-11T12:56:03.728Z,3.58
2022-12-11T12:58:42.862Z,3.64
2022-12-11T13:01:23.016Z,3.61
2022-12-11T13:03:54.541Z,3.42
2022-12-11T13:06:38.452Z,3.38
2022-12-11T13:09:21.837Z,3.45
2022-12-11T13:11:54.000Z,3.31
2022-12-11T13:14:21.452Z,3.14
2022-12-11T13:16:50.973Z,3.15
2022-12-11T13:19:24.482Z,2.96
2022-12-11T13:22:20.662Z,3.01
2022-12-11T13:25:01.314Z,3.25
2022-12-11T13:27:30.220Z,3.15
2022-12-11T13:30:15.708Z,3.14
2022-12-11T13:32:50.416Z,2.91
2022-12-11T13:35:18.713Z,2.96
2022-12-11T13:37:50.210Z,2.78
2022-12-11T13:40:25.043Z,2.71
2022-12-11T13:43:00.570Z,2.83
2022-12-11T13:45:35.336Z,2.86
2022-12-11T13:48:05.344Z,2.66
2022-12-11T13:50:35.321Z,2.58
2022-12-11T13:53:03.720Z,2.58
2022-12-11T13:55:34.013Z,2.84
2022-12-11T14:01:11.932Z,2.61
2022-12-11T14:03:48.969Z,2.40
2022-12-11T14:06:19.132Z,2.33
2022-12-11T14:08:50.139Z,2.46
2022-12-11T14:11:30.604Z,2.58
2022-12-11T14:14:01.016Z,2.51
2022-12-11T14:16:29.452Z,2.24
2022-12-11T14:19:06.435Z,2.21
2022-12-11T14:21:34.049Z,2.52
2022-12-11T14:24:04.283Z,2.49
2022-12-11T14:26:35.256Z,2.31
2022-12-11T14:29:03.200Z,2.32
2022-12-11T14:31:38.541Z,2.41
2022-12-11T14:34:35.295Z,2.38
2022-12-11T14:37:06.609Z,2.33
2022-12-11T14:39:59.884Z,2.28
2022-12-11T14:42:35.482Z,2.21
2022-12-11T14:45:09.026Z,2.05
2022-12-11T14:47:42.713Z,2.14
2022-12-11T14:50:31.860Z,2.00
2022-12-11T14:53:29.877Z,2.00
2022-12-11T14:56:02.225Z,2.12
2022-12-11T14:58:30.601Z,2.07
2022-12-11T15:01:01.162Z,2.42
2022-12-11T15:03:35.666Z,2.31
2022-12-11T15:06:21.265Z,2.22
2022-12-11T15:08:48.771Z,2.20
2022-12-11T15:11:17.875Z,2.12
2022-12-11T15:13:56.711Z,2.08
2022-12-11T15:16:27.072Z,2.19
2022-12-11T15:18:56.837Z,2.11
2022-12-11T15:21:34.232Z,1.85
2022-12-11T15:24:07.312Z,1.94
2022-12-11T15:26:44.646Z,2.04
2022-12-11T15:29:34.074Z,2.06
2022-12-11T15:32:18.939Z,2.00
2022-12-11T15:34:52.802Z,1.87
2022-12-11T15:37:24.052Z,1.97
2022-12-11T15:39:52.975Z,1.99
2022-12-11T15:42:47.610Z,2.23
2022-12-11T15:45:24.177Z,2.00
2022-12-11T15:47:52.766Z,2.17
2022-12-11T15:50:23.273Z,2.09
2022-12-11T15:52:52.977Z,2.05
2022-12-11T15:55:22.754Z,1.94
2022-12-11T15:57:56.872Z,2.27
2022-12-11T16:00:24.858Z,2.32
2022-12-11T16:02:52.371Z,2.38
2022-12-11T16:05:20.023Z,2.36
2022-12-11T16:07:48.027Z,2.51
2022-12-11T16:10:18.372Z,2.41
2022-12-11T16:12:46.225Z,2.27
2022-12-11T16:15:20.120Z,2.32
2022-12-11T16:17:57.640Z,2.28
2022-12-11T16:20:25.221Z,2.40
2022-12-11T16:22:52.620Z,2.36
2022-12-11T16:25:20.099Z,2.19
2022-12-11T16:27:47.785Z,2.05
2022-12-11T16:30:15.151Z,2.00
2022-12-11T16:32:43.014Z,2.21
2022-12-11T16:35:21.612Z,2.16
2022-12-11T16:37:54.402Z,2.27
2022-12-11T16:40:23.004Z,2.10
2022-12-11T16:42:51.100Z,1.89
2022-12-11T16:45:24.252Z,1.96
2022-12-11T16:47:52.681Z,2.05
2022-12-11T16:50:20.113Z,1.89
2022-12-11T16:52:47.722Z,1.76
2022-12-11T16:55:15.932Z,1.99
2022-12-11T16:57:43.508Z,1.95
2022-12-11T17:00:14.661Z,1.83
2022-12-11T17:02:42.294Z,1.96
2022-12-11T17:05:10.368Z,2.05
2022-12-11T17:07:38.280Z,1.86
2022-12-11T17:10:06.100Z,1.88
2022-12-11T17:12:33.501Z,1.90
2022-12-11T17:15:00.888Z,1.80
2022-12-11T17:17:28.453Z,1.75
2022-12-11T17:19:56.408Z,1.57
2022-12-11T17:22:23.880Z,1.52
2022-12-11T17:24:51.316Z,1.17
2022-12-11T17:27:18.869Z,1.21
2022-12-11T17:29:47.597Z,1.19
2022-12-11T17:32:15.764Z,1.24
2022-12-11T17:34:43.313Z,1.22
2022-12-11T17:37:11.229Z,1.22
2022-12-11T17:39:38.592Z,1.34
2022-12-11T17:42:06.757Z,1.43
2022-12-11T17:44:34.706Z,1.26
2022-12-11T17:47:07.488Z,1.20
2022-12-11T17:49:39.725Z,1.13
2022-12-11T17:52:07.376Z,1.20
2022-12-11T17:54:35.426Z,1.33
2022-12-11T17:57:03.098Z,1.12
2022-12-11T17:59:30.638Z,1.03
2022-12-11T18:01:58.274Z,0.79
2022-12-11T18:04:25.881Z,0.70
2022-12-11T18:06:53.280Z,0.53
2022-12-11T18:09:20.763Z,0.33
2022-12-11T18:11:48.277Z,0.40
2022-12-11T18:14:17.574Z,0.44
2022-12-11T18:16:45.178Z,0.26
2022-12-11T18:19:13.302Z,0.33
2022-12-11T18:21:43.027Z,0.44
2022-12-11T18:24:10.733Z,0.44
2022-12-11T18:26:38.346Z,0.48
2022-12-11T18:29:07.005Z,0.42
2022-12-11T18:31:40.528Z,0.16
2022-12-11T18:34:10.853Z,0.41
2022-12-11T18:36:38.266Z,0.21
2022-12-11T18:39:05.675Z,0.46
2022-12-11T18:41:33.059Z,0.64
2022-12-11T18:44:07.973Z,0.64
2022-12-11T18:46:37.647Z,0.77
2022-12-11T18:49:05.447Z,0.88
2022-12-11T18:51:32.938Z,0.63
2022-12-11T18:54:00.380Z,0.71
2022-12-11T18:56:27.906Z,0.53
2022-12-11T18:58:55.269Z,0.57
2022-12-11T19:01:27.398Z,0.44
2022-12-11T19:04:04.171Z,0.15
2022-12-11T19:06:35.801Z,0.22
2022-12-11T19:09:05.769Z,0.46
2022-12-11T19:11:34.730Z,0.39
2022-12-11T19:14:02.575Z,0.07
2022-12-11T19:16:36.538Z,0.18
2022-12-11T19:19:10.196Z,0.37
2022-12-11T19:21:40.076Z,0.28
2022-12-11T19:24:10.306Z,0.24
2022-12-11T19:26:37.701Z,0.00
2022-12-11T19:29:05.420Z,-0.24
2022-12-11T19:31:34.170Z,-0.30
2022-12-11T19:34:03.181Z,-0.28
2022-12-11T19:36:32.135Z,-0.12
2022-12-11T19:39:01.788Z,-0.39
2022-12-11T19:41:30.466Z,-0.09
2022-12-11T19:43:59.516Z,-0.25
2022-12-11T19:46:28.401Z,-0.36
2022-12-11T19:48:57.476Z,-0.42
2022-12-11T19:51:38.671Z,-0.47
2022-12-11T19:54:08.593Z,-0.48
2022-12-11T19:56:36.425Z,-0.39
2022-12-11T19:59:06.584Z,-0.40
2022-12-11T20:01:36.543Z,-0.42
2022-12-11T20:04:23.062Z,-0.46
2022-12-11T20:06:50.674Z,-0.65
2022-12-11T20:09:18.494Z,-0.32
2022-12-11T20:11:47.806Z,-0.42
2022-12-11T20:14:20.305Z,-0.33
2022-12-11T20:19:35.765Z,-0.82
2022-12-11T20:22:03.127Z,-0.79
2022-12-11T20:24:30.760Z,-0.53
2022-12-11T20:26:58.230Z,-0.58
2022-12-11T20:29:25.731Z,-0.78
2022-12-11T20:31:53.343Z,-0.45
2022-12-11T20:34:21.242Z,-0.28
2022-12-11T20:36:48.820Z,-0.10
2022-12-11T20:39:16.235Z,-0.15
2022-12-11T20:41:44.129Z,-0.18
2022-12-11T20:44:11.481Z,-0.07
2022-12-11T20:46:39.009Z,-0.14
2022-12-11T20:49:13.001Z,-0.54
2022-12-11T20:51:41.512Z,-0.46
2022-12-11T20:54:09.275Z,-0.55
2022-12-11T20:56:36.864Z,-0.38
2022-12-11T20:59:04.459Z,-0.48
2022-12-11T21:01:33.435Z,-0.43
2022-12-11T21:04:01.162Z,-0.56
2022-12-11T21:06:36.893Z,-0.69
2022-12-11T21:09:08.348Z,-0.96
2022-12-11T21:11:36.144Z,-0.75
2022-12-11T21:16:55.637Z,-0.88
2022-12-11T21:19:23.709Z,-1.20
2022-12-11T21:21:51.539Z,-1.00
2022-12-11T21:24:32.575Z,-1.25
2022-12-11T21:27:00.119Z,-1.14
2022-12-11T21:29:29.596Z,-1.16
2022-12-11T21:31:58.038Z,-1.36
2022-12-11T21:34:25.933Z,-1.57
2022-12-11T21:36:57.282Z,-1.62
2022-12-11T21:39:26.642Z,-1.67
2022-12-11T21:42:12.762Z,-1.83
2022-12-11T21:45:31.520Z,-1.63
2022-12-11T21:47:30.219Z,-1.68
2022-12-11T21:49:57.664Z,-1.70
2022-12-11T21:52:25.106Z,-1.83
2022-12-11T21:54:52.505Z,-1.85
2022-12-11T21:57:25.875Z,-2.14
2022-12-11T21:59:53.965Z,-2.35
2022-12-11T22:02:21.542Z,-2.08
2022-12-11T22:04:48.922Z,-1.84
2022-12-11T22:07:16.638Z,-1.46
2022-12-11T22:12:28.505Z,-1.59
2022-12-11T22:14:56.503Z,-1.80
2022-12-11T22:17:24.144Z,-1.47
2022-12-11T22:19:54.804Z,-1.71
2022-12-11T22:22:22.331Z,-1.72
2022-12-11T22:24:50.975Z,-1.76
2022-12-11T22:27:23.462Z,-1.46
2022-12-11T22:29:51.341Z,-1.47
2022-12-11T22:32:18.893Z,-1.46
2022-12-11T22:34:46.352Z,-1.57
2022-12-11T22:37:13.901Z,-1.71
2022-12-11T22:39:41.243Z,-1.79
2022-12-11T22:42:08.740Z,-1.77
2022-12-11T22:44:36.189Z,-1.64
2022-12-11T22:47:03.748Z,-2.34
2022-12-11T22:49:31.318Z,-2.69
2022-12-11T22:51:59.013Z,-2.53
2022-12-11T22:54:26.602Z,-2.73
2022-12-11T22:57:09.091Z,-2.73
2022-12-11T22:59:59.599Z,-2.65
2022-12-11T23:02:27.581Z,-2.86
2022-12-11T23:04:55.102Z,-2.79
2022-12-11T23:07:24.437Z,-2.92
2022-12-11T23:09:51.936Z,-3.17
2022-12-11T23:12:19.516Z,-3.04
2022-12-11T23:14:46.837Z,-2.90
2022-12-11T23:17:14.339Z,-2.79
2022-12-11T23:19:42.320Z,-3.03
2022-12-11T23:22:10.049Z,-3.20
2022-12-11T23:24:37.452Z,-3.45
2022-12-11T23:27:05.417Z,-3.50
2022-12-11T23:29:32.924Z,-3.47
2022-12-11T23:32:00.558Z,-3.49
2022-12-11T23:34:28.380Z,-3.50
2022-12-11T23:36:55.906Z,-3.48
2022-12-11T23:39:23.315Z,-3.37
2022-12-11T23:41:50.799Z,-3.58
2022-12-11T23:44:18.637Z,-3.32
2022-12-11T23:46:46.121Z,-3.41
2022-12-11T23:49:13.436Z,-3.52
2022-12-11T23:51:42.192Z,-3.79
2022-12-11T23:54:09.686Z,-4.22
2022-12-11T23:56:37.213Z,-4.22
2022-12-11T23:59:04.600Z,-4.00
